N828WW KMCO-CYKA
Flight info
| Callsign | N828WW |
|---|---|
| Flight time | 5h 49m |
| Altitude | 36000 |
| Route | JEEMY3 PAINN DCT LGC DCT SNEAR DCT VIH DCT LASSO/N0465F380 DCT ONL J151 BIL J13 GTF J569 YXC |
| Aircraft | B737/M-SDE2E3FGHIRWXY/LB1 |
Departure
| Time | 2026-05-06 18:09 |
|---|---|
| Airport | Orlando International Airport (KMCO) |
Arrival
| Time | 2026-05-06 23:58 |
|---|---|
| Airport | Kamloops John Moose Fulton Field Regional Airport (CYKA) |
| Time | Latitude | Longitude | Altitude | Speed | Heading |
|---|---|---|---|---|---|
| 2026-05-06 17:45 | 28.42640 | -81.33026 | 97 ft | 0 kts | 2° |
| 2026-05-06 17:57 | 28.42633 | -81.33026 | 98 ft | 4 kts | 7° |
| 2026-05-06 17:57 | 28.42611 | -81.33035 | 97 ft | 4 kts | 51° |
| 2026-05-06 17:57 | 28.42603 | -81.33057 | 97 ft | 1 kts | 89° |
| 2026-05-06 17:58 | 28.42603 | -81.33058 | 97 ft | 1 kts | 89° |
| 2026-05-06 18:01 | 28.42603 | -81.33057 | 97 ft | 0 kts | 89° |
| 2026-05-06 18:01 | 28.42603 | -81.33048 | 115 ft | 2 kts | 91° |
| 2026-05-06 18:01 | 28.42602 | -81.33020 | 97 ft | 6 kts | 91° |
| 2026-05-06 18:02 | 28.42612 | -81.32955 | 97 ft | 15 kts | 54° |
| 2026-05-06 18:02 | 28.42755 | -81.32921 | 99 ft | 23 kts | 1° |
| 2026-05-06 18:02 | 28.42914 | -81.32923 | 97 ft | 22 kts | 359° |
| 2026-05-06 18:02 | 28.43068 | -81.32925 | 99 ft | 22 kts | 359° |
| 2026-05-06 18:03 | 28.43217 | -81.32927 | 97 ft | 21 kts | 359° |
| 2026-05-06 18:03 | 28.43363 | -81.32929 | 99 ft | 21 kts | 359° |
| 2026-05-06 18:03 | 28.43503 | -81.32931 | 97 ft | 20 kts | 359° |
| 2026-05-06 18:03 | 28.43639 | -81.32933 | 97 ft | 19 kts | 359° |
| 2026-05-06 18:04 | 28.43771 | -81.32935 | 97 ft | 19 kts | 359° |
| 2026-05-06 18:04 | 28.43899 | -81.32936 | 98 ft | 18 kts | 359° |
| 2026-05-06 18:04 | 28.44015 | -81.32897 | 98 ft | 17 kts | 28° |
| 2026-05-06 18:04 | 28.44127 | -81.32865 | 99 ft | 17 kts | 356° |
| 2026-05-06 18:05 | 28.44240 | -81.32869 | 97 ft | 16 kts | 359° |
| 2026-05-06 18:05 | 28.44351 | -81.32872 | 97 ft | 16 kts | 359° |
| 2026-05-06 18:05 | 28.44457 | -81.32875 | 98 ft | 15 kts | 359° |
| 2026-05-06 18:05 | 28.44558 | -81.32872 | 97 ft | 14 kts | 4° |
| 2026-05-06 18:06 | 28.44655 | -81.32867 | 98 ft | 14 kts | 359° |
| 2026-05-06 18:06 | 28.44748 | -81.32869 | 98 ft | 13 kts | 359° |
| 2026-05-06 18:06 | 28.44815 | -81.32819 | 98 ft | 13 kts | 84° |
| 2026-05-06 18:06 | 28.44815 | -81.32804 | 99 ft | 0 kts | 91° |
| 2026-05-06 18:08 | 28.44815 | -81.32789 | 100 ft | 9 kts | 91° |
| 2026-05-06 18:08 | 28.44791 | -81.32695 | 100 ft | 11 kts | 174° |
| 2026-05-06 18:08 | 28.44570 | -81.32697 | 99 ft | 72 kts | 179° |
| 2026-05-06 18:08 | 28.43792 | -81.32685 | 99 ft | 151 kts | 179° |
| 2026-05-06 18:09 | 28.42564 | -81.32669 | 557 ft | 184 kts | 177° |
| 2026-05-06 18:09 | 28.41277 | -81.32610 | 1742 ft | 185 kts | 176° |
| 2026-05-06 18:09 | 28.39975 | -81.32677 | 2756 ft | 199 kts | 195° |
| 2026-05-06 18:09 | 28.38601 | -81.33279 | 3125 ft | 226 kts | 199° |
| 2026-05-06 18:10 | 28.37084 | -81.33972 | 3581 ft | 240 kts | 201° |
| 2026-05-06 18:10 | 28.35540 | -81.34731 | 4299 ft | 244 kts | 200° |
| 2026-05-06 18:10 | 28.34014 | -81.35643 | 4923 ft | 254 kts | 224° |
| 2026-05-06 18:10 | 28.33265 | -81.37404 | 5629 ft | 255 kts | 257° |
| 2026-05-06 18:11 | 28.33180 | -81.39431 | 6240 ft | 260 kts | 285° |
| 2026-05-06 18:11 | 28.33648 | -81.40695 | 6753 ft | 257 kts | 307° |
| 2026-05-06 18:11 | 28.35532 | -81.42220 | 7597 ft | 259 kts | 345° |
| 2026-05-06 18:11 | 28.37387 | -81.42520 | 8024 ft | 278 kts | 359° |
| 2026-05-06 18:12 | 28.39330 | -81.42505 | 8925 ft | 279 kts | 1° |
| 2026-05-06 18:12 | 28.41293 | -81.42447 | 9794 ft | 284 kts | 3° |
| 2026-05-06 18:12 | 28.43268 | -81.42301 | 10486 ft | 294 kts | 2° |
| 2026-05-06 18:12 | 28.45404 | -81.42218 | 10712 ft | 321 kts | 0° |
| 2026-05-06 18:13 | 28.47722 | -81.42176 | 10914 ft | 345 kts | 1° |
| 2026-05-06 18:13 | 28.50210 | -81.42133 | 11074 ft | 368 kts | 0° |
| 2026-05-06 18:13 | 28.52845 | -81.42083 | 11292 ft | 387 kts | 0° |
| 2026-05-06 18:13 | 28.55568 | -81.42027 | 11816 ft | 394 kts | 0° |
| 2026-05-06 18:14 | 28.58316 | -81.41953 | 12518 ft | 395 kts | 1° |
| 2026-05-06 18:14 | 28.61071 | -81.41885 | 13214 ft | 396 kts | 0° |
| 2026-05-06 18:14 | 28.63801 | -81.41841 | 13839 ft | 399 kts | 360° |
| 2026-05-06 18:14 | 28.66590 | -81.41795 | 14368 ft | 402 kts | 0° |
| 2026-05-06 18:15 | 28.69401 | -81.41738 | 14861 ft | 406 kts | 359° |
| 2026-05-06 18:15 | 28.72243 | -81.41699 | 15302 ft | 410 kts | 358° |
| 2026-05-06 18:15 | 28.75108 | -81.41689 | 15776 ft | 413 kts | 359° |
| 2026-05-06 18:15 | 28.77987 | -81.41634 | 16258 ft | 415 kts | 359° |
| 2026-05-06 18:16 | 28.80890 | -81.41569 | 16708 ft | 418 kts | 359° |
| 2026-05-06 18:16 | 28.83809 | -81.41506 | 17144 ft | 421 kts | 358° |
| 2026-05-06 18:16 | 28.86754 | -81.41447 | 17582 ft | 423 kts | 358° |
| 2026-05-06 18:16 | 28.89671 | -81.41392 | 17986 ft | 426 kts | 358° |
| 2026-05-06 18:17 | 28.92642 | -81.41338 | 18385 ft | 429 kts | 358° |
| 2026-05-06 18:17 | 28.95639 | -81.41305 | 18717 ft | 431 kts | 355° |
| 2026-05-06 18:17 | 28.98629 | -81.41525 | 19098 ft | 430 kts | 351° |
| 2026-05-06 18:17 | 29.00614 | -81.41758 | 19354 ft | 430 kts | 349° |
| 2026-05-06 18:18 | 29.03596 | -81.42158 | 19679 ft | 433 kts | 350° |
| 2026-05-06 18:18 | 29.06599 | -81.42535 | 20011 ft | 435 kts | 351° |
| 2026-05-06 18:18 | 29.10600 | -81.42995 | 20459 ft | 437 kts | 351° |
| 2026-05-06 18:18 | 29.12654 | -81.43204 | 20678 ft | 439 kts | 351° |
| 2026-05-06 18:19 | 29.15673 | -81.43491 | 20997 ft | 441 kts | 352° |
| 2026-05-06 18:19 | 29.18746 | -81.43773 | 21320 ft | 442 kts | 352° |
| 2026-05-06 18:19 | 29.21821 | -81.44054 | 21620 ft | 444 kts | 351° |
| 2026-05-06 18:19 | 29.25919 | -81.44435 | 22005 ft | 447 kts | 351° |
| 2026-05-06 18:20 | 29.28019 | -81.44632 | 22200 ft | 448 kts | 351° |
| 2026-05-06 18:20 | 29.31136 | -81.44927 | 22466 ft | 450 kts | 351° |
| 2026-05-06 18:20 | 29.34227 | -81.45221 | 22745 ft | 452 kts | 351° |
| 2026-05-06 18:20 | 29.37367 | -81.45521 | 23021 ft | 453 kts | 351° |
| 2026-05-06 18:21 | 29.40517 | -81.45821 | 23271 ft | 455 kts | 351° |
| 2026-05-06 18:21 | 29.43687 | -81.46124 | 23510 ft | 457 kts | 351° |
| 2026-05-06 18:21 | 29.46859 | -81.46427 | 23734 ft | 458 kts | 351° |
| 2026-05-06 18:21 | 29.50045 | -81.46731 | 23937 ft | 460 kts | 351° |
| 2026-05-06 18:22 | 29.53205 | -81.47032 | 24148 ft | 460 kts | 351° |
| 2026-05-06 18:22 | 29.56402 | -81.47338 | 24379 ft | 461 kts | 350° |
| 2026-05-06 18:22 | 29.59604 | -81.47641 | 24545 ft | 463 kts | 351° |
| 2026-05-06 18:22 | 29.62824 | -81.47936 | 24722 ft | 464 kts | 351° |
| 2026-05-06 18:23 | 29.66053 | -81.48225 | 24925 ft | 465 kts | 351° |
| 2026-05-06 18:23 | 29.69285 | -81.48514 | 25108 ft | 466 kts | 351° |
| 2026-05-06 18:23 | 29.72520 | -81.48805 | 25299 ft | 466 kts | 350° |
| 2026-05-06 18:23 | 29.75766 | -81.49098 | 25479 ft | 467 kts | 350° |
| 2026-05-06 18:24 | 29.79018 | -81.49393 | 25641 ft | 468 kts | 350° |
| 2026-05-06 18:24 | 29.82272 | -81.49689 | 25806 ft | 469 kts | 350° |
| 2026-05-06 18:24 | 29.85444 | -81.50152 | 26015 ft | 463 kts | 341° |
| 2026-05-06 18:24 | 29.88453 | -81.51351 | 26270 ft | 453 kts | 331° |
| 2026-05-06 18:25 | 29.91206 | -81.53075 | 26582 ft | 446 kts | 323° |
| 2026-05-06 18:25 | 29.93623 | -81.55265 | 26871 ft | 440 kts | 313° |
| 2026-05-06 18:25 | 29.95815 | -81.57730 | 27166 ft | 438 kts | 313° |
| 2026-05-06 18:25 | 29.97981 | -81.60199 | 27454 ft | 437 kts | 313° |
| 2026-05-06 18:26 | 30.00140 | -81.62661 | 27788 ft | 436 kts | 313° |
| 2026-05-06 18:26 | 30.02297 | -81.65111 | 28144 ft | 434 kts | 313° |
| 2026-05-06 18:26 | 30.04452 | -81.67548 | 28504 ft | 432 kts | 313° |
| 2026-05-06 18:26 | 30.06603 | -81.69972 | 28856 ft | 431 kts | 313° |
| 2026-05-06 18:27 | 30.08747 | -81.72381 | 29243 ft | 429 kts | 313° |
| 2026-05-06 18:27 | 30.10853 | -81.74747 | 29643 ft | 427 kts | 312° |
| 2026-05-06 18:27 | 30.12982 | -81.77138 | 30056 ft | 425 kts | 312° |
| 2026-05-06 18:27 | 30.15101 | -81.79518 | 30471 ft | 422 kts | 312° |
| 2026-05-06 18:28 | 30.17198 | -81.81875 | 30920 ft | 418 kts | 312° |
| 2026-05-06 18:28 | 30.19280 | -81.84215 | 31309 ft | 416 kts | 312° |
| 2026-05-06 18:28 | 30.21352 | -81.86549 | 31651 ft | 415 kts | 312° |
| 2026-05-06 18:28 | 30.23421 | -81.88880 | 32011 ft | 414 kts | 312° |
| 2026-05-06 18:29 | 30.25456 | -81.91174 | 32412 ft | 412 kts | 312° |
| 2026-05-06 18:29 | 30.27502 | -81.93481 | 32798 ft | 410 kts | 312° |
| 2026-05-06 18:29 | 30.29541 | -81.95783 | 33164 ft | 408 kts | 312° |
| 2026-05-06 18:29 | 30.31576 | -81.98081 | 33505 ft | 407 kts | 312° |
| 2026-05-06 18:30 | 30.33603 | -82.00372 | 33847 ft | 405 kts | 312° |
| 2026-05-06 18:30 | 30.35616 | -82.02648 | 34196 ft | 403 kts | 312° |
| 2026-05-06 18:30 | 30.37593 | -82.04885 | 34472 ft | 402 kts | 311° |
| 2026-05-06 18:30 | 30.39599 | -82.07156 | 34700 ft | 402 kts | 311° |
| 2026-05-06 18:31 | 30.41603 | -82.09427 | 34915 ft | 402 kts | 311° |
| 2026-05-06 18:31 | 30.43602 | -82.11694 | 35153 ft | 402 kts | 311° |
| 2026-05-06 18:31 | 30.45602 | -82.13962 | 35363 ft | 402 kts | 311° |
| 2026-05-06 18:31 | 30.47601 | -82.16230 | 35551 ft | 402 kts | 311° |
| 2026-05-06 18:32 | 30.49574 | -82.18472 | 35757 ft | 401 kts | 311° |
| 2026-05-06 18:32 | 30.51572 | -82.20741 | 35968 ft | 400 kts | 311° |
| 2026-05-06 18:32 | 30.53563 | -82.23004 | 36119 ft | 401 kts | 311° |
| 2026-05-06 18:32 | 30.55564 | -82.25282 | 36113 ft | 403 kts | 311° |
| 2026-05-06 18:33 | 30.59554 | -82.29824 | 36117 ft | 400 kts | 311° |
| 2026-05-06 18:33 | 30.63523 | -82.34347 | 36124 ft | 398 kts | 311° |
| 2026-05-06 18:34 | 30.67448 | -82.38827 | 36125 ft | 397 kts | 311° |
| 2026-05-06 18:34 | 30.71393 | -82.43336 | 36120 ft | 398 kts | 311° |
| 2026-05-06 18:35 | 30.75336 | -82.47849 | 36116 ft | 398 kts | 310° |
| 2026-05-06 18:35 | 30.79295 | -82.52384 | 36106 ft | 399 kts | 310° |
| 2026-05-06 18:36 | 30.83234 | -82.56902 | 36092 ft | 399 kts | 310° |
| 2026-05-06 18:36 | 30.87199 | -82.61454 | 36088 ft | 400 kts | 310° |
| 2026-05-06 18:37 | 30.91159 | -82.66008 | 36090 ft | 400 kts | 310° |
| 2026-05-06 18:37 | 30.95104 | -82.70549 | 36092 ft | 400 kts | 310° |
| 2026-05-06 18:38 | 30.99059 | -82.75107 | 36093 ft | 400 kts | 310° |
| 2026-05-06 18:38 | 31.03027 | -82.79686 | 36087 ft | 400 kts | 310° |
| 2026-05-06 18:39 | 31.06969 | -82.84240 | 36086 ft | 401 kts | 310° |
| 2026-05-06 18:40 | 31.12911 | -82.91117 | 36087 ft | 400 kts | 310° |
| 2026-05-06 18:40 | 31.16843 | -82.95674 | 36085 ft | 400 kts | 310° |
| 2026-05-06 18:41 | 31.20793 | -83.00257 | 36067 ft | 400 kts | 310° |
| 2026-05-06 18:41 | 31.24736 | -83.04839 | 36077 ft | 400 kts | 310° |
| 2026-05-06 18:42 | 31.28677 | -83.09424 | 36077 ft | 399 kts | 310° |
| 2026-05-06 18:42 | 31.32596 | -83.13989 | 36078 ft | 399 kts | 310° |
| 2026-05-06 18:43 | 31.36535 | -83.18583 | 36082 ft | 399 kts | 309° |
| 2026-05-06 18:43 | 31.40471 | -83.23178 | 36079 ft | 399 kts | 309° |
| 2026-05-06 18:44 | 31.44383 | -83.27752 | 36068 ft | 399 kts | 309° |
| 2026-05-06 18:44 | 31.48323 | -83.32364 | 36076 ft | 399 kts | 309° |
| 2026-05-06 18:45 | 31.52220 | -83.36933 | 36076 ft | 399 kts | 309° |
| 2026-05-06 18:45 | 31.56148 | -83.41543 | 36072 ft | 399 kts | 309° |
| 2026-05-06 18:46 | 31.60067 | -83.46148 | 36077 ft | 399 kts | 309° |
| 2026-05-06 18:46 | 31.63988 | -83.50761 | 36115 ft | 398 kts | 309° |
| 2026-05-06 18:47 | 31.67885 | -83.55352 | 36092 ft | 398 kts | 308° |
| 2026-05-06 18:47 | 31.71794 | -83.59963 | 36075 ft | 398 kts | 308° |
| 2026-05-06 18:48 | 31.75692 | -83.64566 | 36081 ft | 397 kts | 308° |
| 2026-05-06 18:48 | 31.79586 | -83.69171 | 36075 ft | 397 kts | 308° |
| 2026-05-06 18:49 | 31.83474 | -83.73774 | 36072 ft | 396 kts | 308° |
| 2026-05-06 18:49 | 31.87332 | -83.78348 | 36077 ft | 396 kts | 308° |
| 2026-05-06 18:50 | 31.91223 | -83.82967 | 36070 ft | 396 kts | 308° |
| 2026-05-06 18:50 | 31.95110 | -83.87587 | 36083 ft | 397 kts | 308° |
| 2026-05-06 18:51 | 31.98999 | -83.92215 | 36075 ft | 397 kts | 308° |
| 2026-05-06 18:51 | 32.02862 | -83.96818 | 36062 ft | 397 kts | 308° |
| 2026-05-06 18:52 | 32.06751 | -84.01458 | 36055 ft | 397 kts | 308° |
| 2026-05-06 18:52 | 32.10634 | -84.06097 | 36043 ft | 397 kts | 308° |
| 2026-05-06 18:53 | 32.14491 | -84.10711 | 36045 ft | 396 kts | 308° |
| 2026-05-06 18:53 | 32.18366 | -84.15352 | 36045 ft | 396 kts | 308° |
| 2026-05-06 18:54 | 32.22229 | -84.19985 | 36069 ft | 396 kts | 308° |
| 2026-05-06 18:54 | 32.26076 | -84.24605 | 36054 ft | 397 kts | 307° |
| 2026-05-06 18:55 | 32.29952 | -84.29265 | 36048 ft | 396 kts | 308° |
| 2026-05-06 18:55 | 32.33684 | -84.34019 | 36012 ft | 395 kts | 308° |
| 2026-05-06 18:56 | 32.37590 | -84.38546 | 36046 ft | 394 kts | 308° |
| 2026-05-06 18:56 | 32.41461 | -84.43149 | 36034 ft | 394 kts | 307° |
| 2026-05-06 18:57 | 32.45311 | -84.47789 | 36033 ft | 394 kts | 307° |
| 2026-05-06 18:57 | 32.49128 | -84.52408 | 36032 ft | 394 kts | 307° |
| 2026-05-06 18:58 | 32.52975 | -84.57072 | 36048 ft | 396 kts | 307° |
| 2026-05-06 18:58 | 32.56838 | -84.61762 | 36042 ft | 398 kts | 307° |
| 2026-05-06 18:59 | 32.60712 | -84.66467 | 36044 ft | 399 kts | 307° |
| 2026-05-06 18:59 | 32.64587 | -84.71181 | 36040 ft | 399 kts | 307° |
| 2026-05-06 19:00 | 32.68439 | -84.75872 | 36054 ft | 399 kts | 307° |
| 2026-05-06 19:00 | 32.72315 | -84.80598 | 36062 ft | 398 kts | 307° |
| 2026-05-06 19:01 | 32.76183 | -84.85323 | 36074 ft | 398 kts | 307° |
| 2026-05-06 19:01 | 32.80041 | -84.90041 | 36089 ft | 398 kts | 307° |
| 2026-05-06 19:02 | 32.83882 | -84.94747 | 36078 ft | 398 kts | 307° |
| 2026-05-06 19:02 | 32.87747 | -84.99486 | 36072 ft | 399 kts | 307° |
| 2026-05-06 19:03 | 32.91593 | -85.04208 | 36055 ft | 399 kts | 307° |
| 2026-05-06 19:03 | 32.95452 | -85.08953 | 36055 ft | 398 kts | 307° |
| 2026-05-06 19:04 | 32.99308 | -85.13701 | 36056 ft | 398 kts | 307° |
| 2026-05-06 19:04 | 33.03168 | -85.18460 | 36052 ft | 398 kts | 307° |
| 2026-05-06 19:05 | 33.07151 | -85.23037 | 36054 ft | 402 kts | 310° |
| 2026-05-06 19:05 | 33.11374 | -85.27426 | 36038 ft | 403 kts | 310° |
| 2026-05-06 19:06 | 33.15614 | -85.31813 | 36021 ft | 402 kts | 310° |
| 2026-05-06 19:06 | 33.19836 | -85.36213 | 36021 ft | 402 kts | 310° |
| 2026-05-06 19:07 | 33.24018 | -85.40591 | 36023 ft | 402 kts | 310° |
| 2026-05-06 19:07 | 33.28222 | -85.45006 | 36010 ft | 402 kts | 310° |
| 2026-05-06 19:08 | 33.31713 | -85.48676 | 36012 ft | 401 kts | 310° |
| 2026-05-06 19:08 | 33.35911 | -85.53094 | 36012 ft | 401 kts | 310° |
| 2026-05-06 19:09 | 33.40777 | -85.58224 | 36016 ft | 401 kts | 310° |
| 2026-05-06 19:09 | 33.44265 | -85.61906 | 36008 ft | 401 kts | 310° |
| 2026-05-06 19:10 | 33.48453 | -85.66332 | 36022 ft | 401 kts | 310° |
| 2026-05-06 19:10 | 33.52642 | -85.70765 | 36021 ft | 401 kts | 310° |
| 2026-05-06 19:11 | 33.56803 | -85.75174 | 36030 ft | 401 kts | 310° |
| 2026-05-06 19:11 | 33.60985 | -85.79611 | 36031 ft | 401 kts | 310° |
| 2026-05-06 19:12 | 33.65170 | -85.84057 | 36031 ft | 401 kts | 309° |
| 2026-05-06 19:12 | 33.69340 | -85.88492 | 36027 ft | 399 kts | 309° |
| 2026-05-06 19:13 | 33.73475 | -85.92897 | 36015 ft | 399 kts | 309° |
| 2026-05-06 19:13 | 33.77627 | -85.97327 | 35992 ft | 398 kts | 309° |
| 2026-05-06 19:14 | 33.81779 | -86.01764 | 35986 ft | 398 kts | 309° |
| 2026-05-06 19:14 | 33.85922 | -86.06196 | 35984 ft | 398 kts | 309° |
| 2026-05-06 19:15 | 33.90037 | -86.10604 | 36018 ft | 399 kts | 309° |
| 2026-05-06 19:15 | 33.94193 | -86.15064 | 35998 ft | 400 kts | 309° |
| 2026-05-06 19:16 | 33.98360 | -86.19539 | 35996 ft | 401 kts | 309° |
| 2026-05-06 19:16 | 34.02532 | -86.24027 | 35980 ft | 401 kts | 309° |
| 2026-05-06 19:17 | 34.06679 | -86.28493 | 35994 ft | 402 kts | 309° |
| 2026-05-06 19:17 | 34.10834 | -86.33015 | 35994 ft | 400 kts | 307° |
| 2026-05-06 19:18 | 34.14748 | -86.37763 | 35991 ft | 398 kts | 305° |
| 2026-05-06 19:18 | 34.18588 | -86.42532 | 36000 ft | 398 kts | 305° |
| 2026-05-06 19:19 | 34.22464 | -86.47341 | 35996 ft | 398 kts | 305° |
| 2026-05-06 19:19 | 34.26337 | -86.52128 | 35991 ft | 398 kts | 305° |
| 2026-05-06 19:20 | 34.30188 | -86.56890 | 35990 ft | 398 kts | 304° |
| 2026-05-06 19:20 | 34.34077 | -86.61701 | 35985 ft | 399 kts | 304° |
| 2026-05-06 19:21 | 34.37966 | -86.66510 | 35993 ft | 400 kts | 304° |
| 2026-05-06 19:21 | 34.40099 | -86.68692 | 35925 ft | 418 kts | 320° |
| 2026-05-06 19:21 | 34.42571 | -86.70527 | 35953 ft | 404 kts | 307° |
| 2026-05-06 19:21 | 34.44297 | -86.73091 | 35948 ft | 386 kts | 296° |
| 2026-05-06 19:22 | 34.45877 | -86.75730 | 35955 ft | 390 kts | 299° |
| 2026-05-06 19:22 | 34.49434 | -86.80719 | 35985 ft | 396 kts | 303° |
| 2026-05-06 19:23 | 34.53252 | -86.85570 | 35981 ft | 398 kts | 304° |
| 2026-05-06 19:23 | 34.57119 | -86.90379 | 36000 ft | 399 kts | 304° |
| 2026-05-06 19:24 | 34.60994 | -86.95203 | 35979 ft | 398 kts | 301° |
| 2026-05-06 19:24 | 34.64756 | -87.00125 | 35988 ft | 401 kts | 305° |
| 2026-05-06 19:25 | 34.68699 | -87.04860 | 35979 ft | 400 kts | 304° |
| 2026-05-06 19:25 | 34.72587 | -87.09697 | 35989 ft | 399 kts | 303° |
| 2026-05-06 19:26 | 34.76415 | -87.14507 | 35981 ft | 397 kts | 303° |
| 2026-05-06 19:26 | 34.80252 | -87.19338 | 35960 ft | 396 kts | 302° |
| 2026-05-06 19:27 | 34.84071 | -87.24153 | 35961 ft | 394 kts | 302° |
| 2026-05-06 19:27 | 34.87884 | -87.28963 | 36409 ft | 387 kts | 302° |
| 2026-05-06 19:27 | 34.89739 | -87.31292 | 36991 ft | 378 kts | 302° |
| 2026-05-06 19:28 | 34.91522 | -87.33531 | 37603 ft | 368 kts | 301° |
| 2026-05-06 19:28 | 34.93291 | -87.35761 | 37967 ft | 365 kts | 301° |
| 2026-05-06 19:28 | 34.95058 | -87.38009 | 37959 ft | 369 kts | 301° |
| 2026-05-06 19:29 | 34.98649 | -87.42590 | 38007 ft | 377 kts | 301° |
| 2026-05-06 19:29 | 35.02307 | -87.47243 | 37985 ft | 381 kts | 301° |
| 2026-05-06 19:30 | 35.06168 | -87.51760 | 37988 ft | 394 kts | 308° |
| 2026-05-06 19:30 | 35.08033 | -87.54069 | 38037 ft | 373 kts | 298° |
| 2026-05-06 19:30 | 35.09687 | -87.56506 | 37963 ft | 372 kts | 298° |
| 2026-05-06 19:31 | 35.13184 | -87.61189 | 37999 ft | 373 kts | 301° |
| 2026-05-06 19:31 | 35.18568 | -87.67987 | 37988 ft | 371 kts | 301° |
| 2026-05-06 19:32 | 35.22151 | -87.72534 | 38016 ft | 371 kts | 301° |
| 2026-05-06 19:32 | 35.25745 | -87.77127 | 38011 ft | 374 kts | 301° |
| 2026-05-06 19:33 | 35.29353 | -87.81751 | 38005 ft | 377 kts | 301° |
| 2026-05-06 19:33 | 35.32954 | -87.86371 | 38008 ft | 378 kts | 301° |
| 2026-05-06 19:34 | 35.36592 | -87.91045 | 38014 ft | 378 kts | 301° |
| 2026-05-06 19:34 | 35.40229 | -87.95725 | 38013 ft | 379 kts | 301° |
| 2026-05-06 19:35 | 35.43865 | -88.00410 | 38010 ft | 379 kts | 301° |
| 2026-05-06 19:35 | 35.47474 | -88.05067 | 38014 ft | 379 kts | 301° |
| 2026-05-06 19:36 | 35.50771 | -88.09935 | 38036 ft | 360 kts | 292° |
| 2026-05-06 19:36 | 35.52548 | -88.12262 | 37878 ft | 395 kts | 311° |
| 2026-05-06 19:36 | 35.54657 | -88.14313 | 38055 ft | 379 kts | 304° |
| 2026-05-06 19:37 | 35.58308 | -88.18805 | 38038 ft | 371 kts | 300° |
| 2026-05-06 19:37 | 35.61231 | -88.22707 | 38047 ft | 370 kts | 299° |
| 2026-05-06 19:38 | 35.65309 | -88.28127 | 38041 ft | 371 kts | 300° |
| 2026-05-06 19:38 | 35.68841 | -88.32765 | 38047 ft | 372 kts | 300° |
| 2026-05-06 19:39 | 35.72387 | -88.37399 | 38041 ft | 372 kts | 300° |
| 2026-05-06 19:39 | 35.75940 | -88.42037 | 38075 ft | 372 kts | 300° |
| 2026-05-06 19:40 | 35.79484 | -88.46668 | 38042 ft | 370 kts | 300° |
| 2026-05-06 19:40 | 35.82986 | -88.51248 | 38043 ft | 369 kts | 299° |
| 2026-05-06 19:41 | 35.86495 | -88.55847 | 38028 ft | 367 kts | 299° |
| 2026-05-06 19:41 | 35.89993 | -88.60438 | 38027 ft | 366 kts | 299° |
| 2026-05-06 19:42 | 35.93484 | -88.65027 | 38042 ft | 366 kts | 299° |
| 2026-05-06 19:42 | 35.96969 | -88.69616 | 38032 ft | 366 kts | 299° |
| 2026-05-06 19:43 | 36.00435 | -88.74182 | 38034 ft | 366 kts | 299° |
| 2026-05-06 19:43 | 36.03916 | -88.78777 | 38030 ft | 366 kts | 299° |
| 2026-05-06 19:44 | 36.07397 | -88.83377 | 38049 ft | 366 kts | 299° |
| 2026-05-06 19:44 | 36.10885 | -88.87997 | 38043 ft | 367 kts | 299° |
| 2026-05-06 19:45 | 36.14376 | -88.92622 | 38047 ft | 368 kts | 299° |
| 2026-05-06 19:45 | 36.17843 | -88.97221 | 38058 ft | 368 kts | 299° |
| 2026-05-06 19:46 | 36.21335 | -89.01862 | 38052 ft | 368 kts | 299° |
| 2026-05-06 19:46 | 36.24827 | -89.06508 | 38106 ft | 368 kts | 298° |
| 2026-05-06 19:47 | 36.28323 | -89.11168 | 38057 ft | 368 kts | 298° |
| 2026-05-06 19:47 | 36.31791 | -89.15793 | 38043 ft | 368 kts | 298° |
| 2026-05-06 19:48 | 36.35271 | -89.20443 | 38044 ft | 367 kts | 298° |
| 2026-05-06 19:48 | 36.38745 | -89.25091 | 38048 ft | 367 kts | 298° |
| 2026-05-06 19:49 | 36.42219 | -89.29749 | 38054 ft | 367 kts | 298° |
| 2026-05-06 19:49 | 36.45672 | -89.34385 | 38049 ft | 368 kts | 298° |
| 2026-05-06 19:50 | 36.49151 | -89.39060 | 38050 ft | 368 kts | 298° |
| 2026-05-06 19:50 | 36.52631 | -89.43745 | 38053 ft | 369 kts | 298° |
| 2026-05-06 19:51 | 36.56119 | -89.48447 | 38043 ft | 369 kts | 298° |
| 2026-05-06 19:51 | 36.59579 | -89.53115 | 38053 ft | 369 kts | 297° |
| 2026-05-06 19:52 | 36.63056 | -89.57814 | 38053 ft | 369 kts | 297° |
| 2026-05-06 19:52 | 36.66535 | -89.62522 | 38054 ft | 369 kts | 297° |
| 2026-05-06 19:53 | 36.70007 | -89.67229 | 38056 ft | 369 kts | 297° |
| 2026-05-06 19:53 | 36.73488 | -89.71954 | 38059 ft | 368 kts | 297° |
| 2026-05-06 19:54 | 36.76932 | -89.76636 | 38062 ft | 369 kts | 297° |
| 2026-05-06 19:54 | 36.79813 | -89.80558 | 38056 ft | 368 kts | 297° |
| 2026-05-06 19:55 | 36.83837 | -89.86042 | 38054 ft | 367 kts | 297° |
| 2026-05-06 19:55 | 36.87289 | -89.90755 | 38055 ft | 367 kts | 297° |
| 2026-05-06 19:56 | 36.90154 | -89.94671 | 38051 ft | 367 kts | 297° |
| 2026-05-06 19:56 | 36.93592 | -89.99378 | 38060 ft | 366 kts | 297° |
| 2026-05-06 19:57 | 36.97010 | -90.04065 | 38056 ft | 366 kts | 297° |
| 2026-05-06 19:57 | 37.00449 | -90.08787 | 38103 ft | 367 kts | 297° |
| 2026-05-06 19:58 | 37.03889 | -90.13516 | 38065 ft | 367 kts | 297° |
| 2026-05-06 19:58 | 37.07322 | -90.18242 | 38054 ft | 365 kts | 297° |
| 2026-05-06 19:59 | 37.10740 | -90.22954 | 38050 ft | 365 kts | 297° |
| 2026-05-06 19:59 | 37.14131 | -90.27636 | 38053 ft | 364 kts | 297° |
| 2026-05-06 20:00 | 37.17543 | -90.32354 | 38056 ft | 364 kts | 297° |
| 2026-05-06 20:00 | 37.20929 | -90.37045 | 38053 ft | 364 kts | 297° |
| 2026-05-06 20:01 | 37.24328 | -90.41759 | 38130 ft | 365 kts | 296° |
| 2026-05-06 20:01 | 37.27743 | -90.46506 | 38076 ft | 366 kts | 296° |
| 2026-05-06 20:02 | 37.31153 | -90.51246 | 38072 ft | 365 kts | 296° |
| 2026-05-06 20:02 | 37.34561 | -90.55991 | 38063 ft | 365 kts | 296° |
| 2026-05-06 20:03 | 37.37941 | -90.60706 | 38060 ft | 364 kts | 296° |
| 2026-05-06 20:03 | 37.41326 | -90.65449 | 38066 ft | 363 kts | 296° |
| 2026-05-06 20:04 | 37.44713 | -90.70181 | 38065 ft | 364 kts | 296° |
| 2026-05-06 20:04 | 37.48102 | -90.74924 | 38105 ft | 363 kts | 296° |
| 2026-05-06 20:05 | 37.51469 | -90.79648 | 38074 ft | 365 kts | 295° |
| 2026-05-06 20:05 | 37.54854 | -90.84405 | 38078 ft | 364 kts | 295° |
| 2026-05-06 20:06 | 37.58235 | -90.89160 | 38073 ft | 363 kts | 295° |
| 2026-05-06 20:06 | 37.61604 | -90.93910 | 38064 ft | 363 kts | 295° |
| 2026-05-06 20:07 | 37.64968 | -90.98658 | 38074 ft | 363 kts | 295° |
| 2026-05-06 20:07 | 37.68309 | -91.03379 | 38076 ft | 362 kts | 295° |
| 2026-05-06 20:08 | 37.71671 | -91.08139 | 38125 ft | 362 kts | 295° |
| 2026-05-06 20:08 | 37.75030 | -91.12904 | 38087 ft | 363 kts | 295° |
| 2026-05-06 20:09 | 37.78373 | -91.17645 | 38086 ft | 364 kts | 295° |
| 2026-05-06 20:09 | 37.81735 | -91.22428 | 38087 ft | 363 kts | 295° |
| 2026-05-06 20:10 | 37.85091 | -91.27208 | 38079 ft | 364 kts | 295° |
| 2026-05-06 20:10 | 37.88450 | -91.31999 | 38074 ft | 363 kts | 295° |
| 2026-05-06 20:11 | 37.91807 | -91.36794 | 38092 ft | 363 kts | 295° |
| 2026-05-06 20:11 | 37.95140 | -91.41563 | 38165 ft | 363 kts | 295° |
| 2026-05-06 20:12 | 37.98505 | -91.46384 | 38107 ft | 364 kts | 295° |
| 2026-05-06 20:12 | 38.01839 | -91.51165 | 38100 ft | 363 kts | 295° |
| 2026-05-06 20:13 | 38.05187 | -91.55975 | 38101 ft | 363 kts | 294° |
| 2026-05-06 20:13 | 38.08542 | -91.60804 | 38102 ft | 363 kts | 294° |
| 2026-05-06 20:14 | 38.11868 | -91.65599 | 38103 ft | 363 kts | 294° |
| 2026-05-06 20:14 | 38.15210 | -91.70425 | 38098 ft | 362 kts | 294° |
| 2026-05-06 20:15 | 38.18313 | -91.75375 | 38181 ft | 356 kts | 291° |
| 2026-05-06 20:15 | 38.21316 | -91.80357 | 38109 ft | 357 kts | 291° |
| 2026-05-06 20:16 | 38.24350 | -91.85389 | 38099 ft | 357 kts | 291° |
| 2026-05-06 20:16 | 38.27381 | -91.90402 | 38086 ft | 357 kts | 291° |
| 2026-05-06 20:17 | 38.30392 | -91.95375 | 38098 ft | 357 kts | 291° |
| 2026-05-06 20:17 | 38.33426 | -92.00403 | 38096 ft | 358 kts | 291° |
| 2026-05-06 20:18 | 38.36460 | -92.05433 | 38089 ft | 358 kts | 291° |
| 2026-05-06 20:18 | 38.39497 | -92.10475 | 38089 ft | 358 kts | 291° |
| 2026-05-06 20:19 | 38.42537 | -92.15530 | 38101 ft | 358 kts | 291° |
| 2026-05-06 20:19 | 38.45555 | -92.20552 | 38101 ft | 359 kts | 291° |
| 2026-05-06 20:20 | 38.48593 | -92.25618 | 38104 ft | 359 kts | 291° |
| 2026-05-06 20:20 | 38.51633 | -92.30695 | 38114 ft | 360 kts | 291° |
| 2026-05-06 20:21 | 38.54654 | -92.35751 | 38100 ft | 361 kts | 291° |
| 2026-05-06 20:21 | 38.57701 | -92.40854 | 38096 ft | 361 kts | 291° |
| 2026-05-06 20:22 | 38.60751 | -92.45972 | 38101 ft | 361 kts | 291° |
| 2026-05-06 20:22 | 38.63776 | -92.51055 | 38123 ft | 362 kts | 292° |
| 2026-05-06 20:23 | 38.66827 | -92.56192 | 38102 ft | 362 kts | 292° |
| 2026-05-06 20:23 | 38.69863 | -92.61310 | 38122 ft | 363 kts | 292° |
| 2026-05-06 20:24 | 38.72917 | -92.66465 | 38120 ft | 362 kts | 292° |
| 2026-05-06 20:24 | 38.76388 | -92.71368 | 38159 ft | 391 kts | 303° |
| 2026-05-06 20:25 | 38.78123 | -92.73847 | 37950 ft | 362 kts | 288° |
| 2026-05-06 20:25 | 38.79406 | -92.76583 | 38090 ft | 359 kts | 288° |
| 2026-05-06 20:25 | 38.82182 | -92.81964 | 38106 ft | 368 kts | 291° |
| 2026-05-06 20:26 | 38.85218 | -92.87311 | 38115 ft | 372 kts | 292° |
| 2026-05-06 20:26 | 38.88336 | -92.92650 | 38136 ft | 374 kts | 292° |
| 2026-05-06 20:27 | 38.91477 | -92.97998 | 38141 ft | 375 kts | 292° |
| 2026-05-06 20:27 | 38.94596 | -93.03316 | 38131 ft | 374 kts | 292° |
| 2026-05-06 20:28 | 38.97744 | -93.08662 | 38148 ft | 375 kts | 293° |
| 2026-05-06 20:28 | 39.00878 | -93.14044 | 38138 ft | 376 kts | 293° |
| 2026-05-06 20:29 | 39.04014 | -93.19444 | 38139 ft | 377 kts | 293° |
| 2026-05-06 20:29 | 39.07139 | -93.24825 | 38141 ft | 378 kts | 293° |
| 2026-05-06 20:30 | 39.11874 | -93.32984 | 38148 ft | 380 kts | 293° |
| 2026-05-06 20:31 | 39.15042 | -93.38456 | 38145 ft | 380 kts | 293° |
| 2026-05-06 20:31 | 39.18189 | -93.43899 | 38142 ft | 381 kts | 293° |
| 2026-05-06 20:32 | 39.21354 | -93.49382 | 38138 ft | 381 kts | 293° |
| 2026-05-06 20:32 | 39.24519 | -93.54874 | 38146 ft | 381 kts | 293° |
| 2026-05-06 20:33 | 39.27678 | -93.60367 | 38141 ft | 380 kts | 293° |
| 2026-05-06 20:33 | 39.30882 | -93.65817 | 38092 ft | 383 kts | 290° |
| 2026-05-06 20:34 | 39.33773 | -93.71485 | 38186 ft | 383 kts | 295° |
| 2026-05-06 20:34 | 39.37054 | -93.76939 | 38142 ft | 388 kts | 295° |
| 2026-05-06 20:35 | 39.40321 | -93.82484 | 38147 ft | 388 kts | 295° |
| 2026-05-06 20:35 | 39.43550 | -93.88109 | 38148 ft | 390 kts | 294° |
| 2026-05-06 20:36 | 39.46758 | -93.93745 | 38146 ft | 391 kts | 294° |
| 2026-05-06 20:36 | 39.49988 | -93.99432 | 38147 ft | 392 kts | 294° |
| 2026-05-06 20:37 | 39.52856 | -94.05319 | 38152 ft | 388 kts | 295° |
| 2026-05-06 20:37 | 39.55580 | -94.06673 | 36268 ft | 498 kts | 343° |
| 2026-05-06 20:37 | 39.58845 | -94.06789 | 37743 ft | 441 kts | 341° |
| 2026-05-06 20:37 | 39.61672 | -94.07380 | 38745 ft | 400 kts | 325° |
| 2026-05-06 20:38 | 39.64250 | -94.08832 | 37372 ft | 420 kts | 317° |
| 2026-05-06 20:38 | 39.66677 | -94.10915 | 36187 ft | 413 kts | 304° |
| 2026-05-06 20:38 | 39.68245 | -94.13707 | 35184 ft | 360 kts | 266° |
| 2026-05-06 20:38 | 39.69306 | -94.16623 | 35145 ft | 363 kts | 289° |
| 2026-05-06 20:39 | 39.70395 | -94.19415 | 35403 ft | 339 kts | 279° |
| 2026-05-06 20:39 | 39.71887 | -94.25320 | 35470 ft | 350 kts | 278° |
| 2026-05-06 20:40 | 39.73565 | -94.31400 | 35581 ft | 368 kts | 284° |
| 2026-05-06 20:40 | 39.74784 | -94.34393 | 35627 ft | 379 kts | 288° |
| 2026-05-06 20:40 | 39.75966 | -94.37394 | 35755 ft | 379 kts | 286° |
| 2026-05-06 20:40 | 39.77278 | -94.40412 | 35877 ft | 388 kts | 291° |
| 2026-05-06 20:41 | 39.78862 | -94.43308 | 36046 ft | 396 kts | 296° |
| 2026-05-06 20:41 | 39.80610 | -94.46106 | 36162 ft | 402 kts | 298° |
| 2026-05-06 20:41 | 39.82449 | -94.48875 | 36155 ft | 404 kts | 299° |
| 2026-05-06 20:42 | 39.86182 | -94.54325 | 36142 ft | 402 kts | 299° |
| 2026-05-06 20:42 | 39.89865 | -94.59720 | 36136 ft | 400 kts | 299° |
| 2026-05-06 20:43 | 39.93540 | -94.65162 | 36137 ft | 399 kts | 299° |
| 2026-05-06 20:43 | 39.96681 | -94.69650 | 36162 ft | 403 kts | 301° |
| 2026-05-06 20:44 | 40.00955 | -94.76052 | 36161 ft | 400 kts | 297° |
| 2026-05-06 20:44 | 40.03903 | -94.80761 | 36146 ft | 406 kts | 299° |
| 2026-05-06 20:45 | 40.07635 | -94.86357 | 36134 ft | 409 kts | 300° |
| 2026-05-06 20:45 | 40.11390 | -94.91934 | 36128 ft | 410 kts | 300° |
| 2026-05-06 20:46 | 40.15298 | -94.97428 | 36137 ft | 424 kts | 309° |
| 2026-05-06 20:46 | 40.16949 | -95.00295 | 36626 ft | 380 kts | 291° |
| 2026-05-06 20:46 | 40.18536 | -95.03149 | 36638 ft | 407 kts | 309° |
| 2026-05-06 20:46 | 40.21136 | -95.05121 | 35247 ft | 450 kts | 319° |
| 2026-05-06 20:47 | 40.23480 | -95.07079 | 36660 ft | 380 kts | 306° |
| 2026-05-06 20:47 | 40.25434 | -95.09484 | 36106 ft | 386 kts | 296° |
| 2026-05-06 20:47 | 40.26866 | -95.12447 | 36032 ft | 385 kts | 291° |
| 2026-05-06 20:47 | 40.28231 | -95.15465 | 35895 ft | 396 kts | 293° |
| 2026-05-06 20:48 | 40.29742 | -95.18536 | 35914 ft | 403 kts | 295° |
| 2026-05-06 20:48 | 40.31355 | -95.21469 | 36851 ft | 387 kts | 298° |
| 2026-05-06 20:48 | 40.33003 | -95.24268 | 36990 ft | 393 kts | 299° |
| 2026-05-06 20:49 | 40.36542 | -95.29932 | 36970 ft | 408 kts | 301° |
| 2026-05-06 20:49 | 40.40243 | -95.35623 | 37165 ft | 416 kts | 302° |
| 2026-05-06 20:49 | 40.42137 | -95.38509 | 37313 ft | 417 kts | 302° |
| 2026-05-06 20:50 | 40.44031 | -95.41390 | 37570 ft | 416 kts | 302° |
| 2026-05-06 20:50 | 40.45919 | -95.44262 | 37833 ft | 415 kts | 302° |
| 2026-05-06 20:50 | 40.47804 | -95.47138 | 38049 ft | 415 kts | 302° |
| 2026-05-06 20:50 | 40.49686 | -95.50015 | 38244 ft | 415 kts | 302° |
| 2026-05-06 20:51 | 40.51565 | -95.52893 | 38454 ft | 415 kts | 302° |
| 2026-05-06 20:51 | 40.53444 | -95.55775 | 38659 ft | 415 kts | 302° |
| 2026-05-06 20:51 | 40.55299 | -95.58625 | 38829 ft | 415 kts | 302° |
| 2026-05-06 20:51 | 40.57173 | -95.61507 | 38981 ft | 415 kts | 302° |
| 2026-05-06 20:52 | 40.59053 | -95.64399 | 39150 ft | 415 kts | 302° |
| 2026-05-06 20:52 | 40.60927 | -95.67286 | 39291 ft | 415 kts | 302° |
| 2026-05-06 20:52 | 40.62806 | -95.70184 | 39427 ft | 415 kts | 302° |
| 2026-05-06 20:52 | 40.64685 | -95.73085 | 39532 ft | 416 kts | 302° |
| 2026-05-06 20:53 | 40.66566 | -95.75992 | 39619 ft | 418 kts | 302° |
| 2026-05-06 20:53 | 40.68451 | -95.78907 | 39756 ft | 417 kts | 302° |
| 2026-05-06 20:53 | 40.70335 | -95.81820 | 39916 ft | 417 kts | 302° |
| 2026-05-06 20:53 | 40.72191 | -95.84695 | 40046 ft | 417 kts | 302° |
| 2026-05-06 20:54 | 40.74067 | -95.87603 | 40174 ft | 417 kts | 302° |
| 2026-05-06 20:54 | 40.75941 | -95.90511 | 40368 ft | 415 kts | 302° |
| 2026-05-06 20:54 | 40.77816 | -95.93424 | 40484 ft | 417 kts | 302° |
| 2026-05-06 20:55 | 40.81574 | -95.99271 | 40744 ft | 416 kts | 302° |
| 2026-05-06 20:55 | 40.83447 | -96.02188 | 40900 ft | 415 kts | 302° |
| 2026-05-06 20:55 | 40.85312 | -96.05097 | 41023 ft | 415 kts | 302° |
| 2026-05-06 20:56 | 40.89051 | -96.10938 | 41115 ft | 418 kts | 302° |
| 2026-05-06 20:56 | 40.92788 | -96.16788 | 41124 ft | 418 kts | 302° |
| 2026-05-06 20:57 | 40.96547 | -96.22679 | 41164 ft | 418 kts | 303° |
| 2026-05-06 20:57 | 41.00304 | -96.28579 | 41132 ft | 419 kts | 303° |
| 2026-05-06 20:58 | 41.04063 | -96.34495 | 41122 ft | 419 kts | 303° |
| 2026-05-06 20:58 | 41.07786 | -96.40366 | 41119 ft | 419 kts | 303° |
| 2026-05-06 20:59 | 41.11535 | -96.46289 | 41118 ft | 418 kts | 303° |
| 2026-05-06 20:59 | 41.15272 | -96.52205 | 41116 ft | 418 kts | 303° |
| 2026-05-06 21:00 | 41.18993 | -96.58108 | 41127 ft | 418 kts | 303° |
| 2026-05-06 21:00 | 41.22725 | -96.64041 | 41133 ft | 418 kts | 303° |
| 2026-05-06 21:01 | 41.26456 | -96.69982 | 41136 ft | 419 kts | 303° |
| 2026-05-06 21:01 | 41.30170 | -96.75907 | 41121 ft | 419 kts | 303° |
| 2026-05-06 21:02 | 41.33906 | -96.81880 | 41127 ft | 419 kts | 303° |
| 2026-05-06 21:02 | 41.37642 | -96.87865 | 41133 ft | 420 kts | 303° |
| 2026-05-06 21:03 | 41.41380 | -96.93864 | 41135 ft | 421 kts | 303° |
| 2026-05-06 21:03 | 41.45124 | -96.99886 | 41128 ft | 422 kts | 303° |
| 2026-05-06 21:04 | 41.48851 | -97.05891 | 41127 ft | 423 kts | 303° |
| 2026-05-06 21:04 | 41.52599 | -97.11941 | 41137 ft | 423 kts | 303° |
| 2026-05-06 21:05 | 41.56354 | -97.18017 | 41154 ft | 424 kts | 304° |
| 2026-05-06 21:05 | 41.60116 | -97.24116 | 41139 ft | 425 kts | 304° |
| 2026-05-06 21:06 | 41.63852 | -97.30183 | 41141 ft | 425 kts | 304° |
| 2026-05-06 21:06 | 41.67611 | -97.36301 | 41136 ft | 425 kts | 304° |
| 2026-05-06 21:07 | 41.71359 | -97.42414 | 41135 ft | 424 kts | 304° |
| 2026-05-06 21:07 | 41.75081 | -97.48497 | 41157 ft | 424 kts | 304° |
| 2026-05-06 21:08 | 41.78828 | -97.54634 | 41147 ft | 424 kts | 304° |
| 2026-05-06 21:08 | 41.82564 | -97.60763 | 41126 ft | 423 kts | 304° |
| 2026-05-06 21:09 | 41.86267 | -97.66852 | 41127 ft | 423 kts | 304° |
| 2026-05-06 21:09 | 41.89985 | -97.72979 | 41126 ft | 422 kts | 304° |
| 2026-05-06 21:10 | 41.93670 | -97.79061 | 41155 ft | 422 kts | 304° |
| 2026-05-06 21:10 | 41.97372 | -97.85187 | 41131 ft | 422 kts | 304° |
| 2026-05-06 21:11 | 42.01080 | -97.91334 | 41130 ft | 422 kts | 304° |
| 2026-05-06 21:11 | 42.04780 | -97.97480 | 41118 ft | 422 kts | 304° |
| 2026-05-06 21:12 | 42.08450 | -98.03590 | 41131 ft | 422 kts | 304° |
| 2026-05-06 21:12 | 42.12149 | -98.09759 | 41152 ft | 423 kts | 304° |
| 2026-05-06 21:13 | 42.15849 | -98.15944 | 41140 ft | 424 kts | 304° |
| 2026-05-06 21:13 | 42.19533 | -98.22115 | 41126 ft | 425 kts | 304° |
| 2026-05-06 21:14 | 42.23244 | -98.28344 | 41124 ft | 426 kts | 304° |
| 2026-05-06 21:14 | 42.26958 | -98.34589 | 41100 ft | 426 kts | 304° |
| 2026-05-06 21:15 | 42.30647 | -98.40807 | 41134 ft | 426 kts | 304° |
| 2026-05-06 21:15 | 42.34359 | -98.47076 | 41113 ft | 427 kts | 304° |
| 2026-05-06 21:16 | 42.38073 | -98.53363 | 41103 ft | 427 kts | 304° |
| 2026-05-06 21:16 | 42.41761 | -98.59618 | 41105 ft | 427 kts | 304° |
| 2026-05-06 21:17 | 42.45465 | -98.65912 | 41099 ft | 427 kts | 304° |
| 2026-05-06 21:17 | 42.48662 | -98.72604 | 41096 ft | 421 kts | 294° |
| 2026-05-06 21:18 | 42.51288 | -98.79706 | 41100 ft | 421 kts | 294° |
| 2026-05-06 21:18 | 42.53903 | -98.86807 | 41102 ft | 421 kts | 294° |
| 2026-05-06 21:19 | 42.56517 | -98.93860 | 41102 ft | 421 kts | 294° |
| 2026-05-06 21:19 | 42.59155 | -99.00960 | 41107 ft | 421 kts | 294° |
| 2026-05-06 21:20 | 42.61796 | -99.08077 | 41104 ft | 421 kts | 294° |
| 2026-05-06 21:20 | 42.64412 | -99.15142 | 41100 ft | 421 kts | 294° |
| 2026-05-06 21:21 | 42.67043 | -99.22267 | 41112 ft | 422 kts | 294° |
| 2026-05-06 21:21 | 42.69675 | -99.29414 | 41113 ft | 423 kts | 294° |
| 2026-05-06 21:22 | 42.72305 | -99.36576 | 41105 ft | 423 kts | 294° |
| 2026-05-06 21:22 | 42.74935 | -99.43753 | 41109 ft | 424 kts | 294° |
| 2026-05-06 21:23 | 42.77549 | -99.50904 | 41095 ft | 424 kts | 294° |
| 2026-05-06 21:23 | 42.80178 | -99.58115 | 41102 ft | 424 kts | 294° |
| 2026-05-06 21:24 | 42.82803 | -99.65334 | 41114 ft | 425 kts | 294° |
| 2026-05-06 21:24 | 42.85406 | -99.72513 | 41101 ft | 425 kts | 294° |
| 2026-05-06 21:25 | 42.88027 | -99.79759 | 41104 ft | 425 kts | 294° |
| 2026-05-06 21:25 | 42.90642 | -99.87005 | 41098 ft | 425 kts | 295° |
| 2026-05-06 21:26 | 42.93252 | -99.94259 | 41104 ft | 426 kts | 294° |
| 2026-05-06 21:26 | 42.95843 | -100.01478 | 41106 ft | 426 kts | 294° |
| 2026-05-06 21:27 | 42.98447 | -100.08752 | 41104 ft | 426 kts | 294° |
| 2026-05-06 21:27 | 43.01049 | -100.16039 | 41101 ft | 427 kts | 295° |
| 2026-05-06 21:28 | 43.03646 | -100.23331 | 41098 ft | 427 kts | 295° |
| 2026-05-06 21:28 | 43.06240 | -100.30635 | 41103 ft | 426 kts | 295° |
| 2026-05-06 21:29 | 43.08808 | -100.37884 | 41097 ft | 426 kts | 295° |
| 2026-05-06 21:29 | 43.11393 | -100.45200 | 41093 ft | 426 kts | 295° |
| 2026-05-06 21:30 | 43.13954 | -100.52466 | 41089 ft | 425 kts | 295° |
| 2026-05-06 21:30 | 43.16521 | -100.59770 | 41057 ft | 425 kts | 295° |
| 2026-05-06 21:31 | 43.19085 | -100.67086 | 41062 ft | 425 kts | 295° |
| 2026-05-06 21:31 | 43.21643 | -100.74402 | 41049 ft | 425 kts | 295° |
| 2026-05-06 21:32 | 43.24194 | -100.81719 | 41047 ft | 425 kts | 295° |
| 2026-05-06 21:32 | 43.28004 | -100.92682 | 41044 ft | 426 kts | 295° |
| 2026-05-06 21:33 | 43.30551 | -101.00036 | 41061 ft | 426 kts | 295° |
| 2026-05-06 21:33 | 43.32665 | -101.06156 | 41058 ft | 427 kts | 295° |
| 2026-05-06 21:34 | 43.35623 | -101.14740 | 41074 ft | 427 kts | 295° |
| 2026-05-06 21:34 | 43.37749 | -101.20927 | 41081 ft | 427 kts | 295° |
| 2026-05-06 21:35 | 43.40266 | -101.28269 | 41098 ft | 427 kts | 295° |
| 2026-05-06 21:35 | 43.42793 | -101.35662 | 41097 ft | 427 kts | 295° |
| 2026-05-06 21:36 | 43.45315 | -101.43060 | 41093 ft | 427 kts | 295° |
| 2026-05-06 21:36 | 43.47833 | -101.50465 | 41102 ft | 427 kts | 295° |
| 2026-05-06 21:37 | 43.50334 | -101.57840 | 41089 ft | 427 kts | 295° |
| 2026-05-06 21:37 | 43.52841 | -101.65256 | 41098 ft | 427 kts | 295° |
| 2026-05-06 21:38 | 43.55346 | -101.72685 | 41086 ft | 426 kts | 295° |
| 2026-05-06 21:38 | 43.57807 | -101.80003 | 41087 ft | 426 kts | 295° |
| 2026-05-06 21:39 | 43.60277 | -101.87366 | 41087 ft | 426 kts | 295° |
| 2026-05-06 21:39 | 43.62760 | -101.94790 | 41096 ft | 426 kts | 295° |
| 2026-05-06 21:40 | 43.65244 | -102.02239 | 41087 ft | 426 kts | 295° |
| 2026-05-06 21:40 | 43.67716 | -102.09671 | 41080 ft | 425 kts | 296° |
| 2026-05-06 21:41 | 43.70170 | -102.17069 | 41082 ft | 425 kts | 296° |
| 2026-05-06 21:41 | 43.72632 | -102.24512 | 41085 ft | 425 kts | 296° |
| 2026-05-06 21:42 | 43.75092 | -102.31969 | 41088 ft | 425 kts | 296° |
| 2026-05-06 21:42 | 43.77542 | -102.39418 | 41095 ft | 426 kts | 296° |
| 2026-05-06 21:43 | 43.79990 | -102.46880 | 41076 ft | 425 kts | 296° |
| 2026-05-06 21:43 | 43.82420 | -102.54310 | 41085 ft | 425 kts | 296° |
| 2026-05-06 21:44 | 43.84867 | -102.61812 | 41087 ft | 426 kts | 296° |
| 2026-05-06 21:44 | 43.87286 | -102.69247 | 41080 ft | 426 kts | 296° |
| 2026-05-06 21:45 | 43.89720 | -102.76753 | 41071 ft | 426 kts | 296° |
| 2026-05-06 21:45 | 43.92296 | -102.84142 | 41093 ft | 423 kts | 301° |
| 2026-05-06 21:46 | 43.93584 | -102.87817 | 41021 ft | 426 kts | 290° |
| 2026-05-06 21:46 | 43.94436 | -102.91752 | 41090 ft | 425 kts | 292° |
| 2026-05-06 21:46 | 43.96839 | -102.99148 | 41042 ft | 424 kts | 298° |
| 2026-05-06 21:47 | 43.99446 | -103.06501 | 41053 ft | 424 kts | 299° |
| 2026-05-06 21:47 | 44.02126 | -103.13825 | 41049 ft | 425 kts | 300° |
| 2026-05-06 21:48 | 44.04800 | -103.21176 | 41046 ft | 426 kts | 299° |
| 2026-05-06 21:48 | 44.07447 | -103.28520 | 41054 ft | 427 kts | 299° |
| 2026-05-06 21:49 | 44.10101 | -103.35929 | 41048 ft | 428 kts | 299° |
| 2026-05-06 21:49 | 44.12752 | -103.43355 | 41046 ft | 428 kts | 299° |
| 2026-05-06 21:50 | 44.15400 | -103.50792 | 41019 ft | 428 kts | 299° |
| 2026-05-06 21:50 | 44.18036 | -103.58214 | 41035 ft | 427 kts | 299° |
| 2026-05-06 21:51 | 44.20647 | -103.65587 | 41058 ft | 426 kts | 299° |
| 2026-05-06 21:51 | 44.23260 | -103.72986 | 41055 ft | 424 kts | 299° |
| 2026-05-06 21:52 | 44.25859 | -103.80364 | 41059 ft | 423 kts | 299° |
| 2026-05-06 21:52 | 44.28451 | -103.87740 | 41062 ft | 423 kts | 299° |
| 2026-05-06 21:53 | 44.31031 | -103.95104 | 41027 ft | 422 kts | 299° |
| 2026-05-06 21:53 | 44.33602 | -104.02462 | 41050 ft | 421 kts | 300° |
| 2026-05-06 21:54 | 44.36165 | -104.09816 | 41073 ft | 420 kts | 300° |
| 2026-05-06 21:54 | 44.38719 | -104.17165 | 41073 ft | 420 kts | 300° |
| 2026-05-06 21:55 | 44.41251 | -104.24471 | 41069 ft | 420 kts | 299° |
| 2026-05-06 21:55 | 44.43791 | -104.31820 | 41062 ft | 420 kts | 299° |
| 2026-05-06 21:56 | 44.46329 | -104.39182 | 41068 ft | 419 kts | 299° |
| 2026-05-06 21:56 | 44.48859 | -104.46542 | 41053 ft | 419 kts | 300° |
| 2026-05-06 21:57 | 44.51368 | -104.53861 | 41064 ft | 419 kts | 300° |
| 2026-05-06 21:57 | 44.53890 | -104.61238 | 41063 ft | 419 kts | 299° |
| 2026-05-06 21:58 | 44.56405 | -104.68615 | 41065 ft | 419 kts | 299° |
| 2026-05-06 21:58 | 44.58896 | -104.75939 | 41065 ft | 418 kts | 299° |
| 2026-05-06 21:59 | 44.61397 | -104.83315 | 41064 ft | 418 kts | 299° |
| 2026-05-06 21:59 | 44.63891 | -104.90691 | 41065 ft | 417 kts | 299° |
| 2026-05-06 22:00 | 44.66363 | -104.98024 | 41062 ft | 417 kts | 299° |
| 2026-05-06 22:00 | 44.68842 | -105.05396 | 41063 ft | 417 kts | 299° |
| 2026-05-06 22:01 | 44.71313 | -105.12763 | 41061 ft | 416 kts | 299° |
| 2026-05-06 22:01 | 44.73778 | -105.20132 | 41062 ft | 416 kts | 299° |
| 2026-05-06 22:02 | 44.76237 | -105.27508 | 41071 ft | 416 kts | 299° |
| 2026-05-06 22:02 | 44.78681 | -105.34853 | 41033 ft | 416 kts | 299° |
| 2026-05-06 22:03 | 44.81128 | -105.42233 | 41047 ft | 416 kts | 299° |
| 2026-05-06 22:03 | 44.83567 | -105.49608 | 41057 ft | 415 kts | 299° |
| 2026-05-06 22:04 | 44.86005 | -105.57000 | 41065 ft | 415 kts | 299° |
| 2026-05-06 22:04 | 44.88426 | -105.64359 | 41054 ft | 416 kts | 299° |
| 2026-05-06 22:05 | 44.90859 | -105.71777 | 41048 ft | 417 kts | 299° |
| 2026-05-06 22:05 | 44.93287 | -105.79202 | 41053 ft | 417 kts | 299° |
| 2026-05-06 22:06 | 44.95713 | -105.86642 | 41037 ft | 417 kts | 299° |
| 2026-05-06 22:06 | 44.98121 | -105.94047 | 41037 ft | 418 kts | 299° |
| 2026-05-06 22:07 | 45.00539 | -106.01504 | 41042 ft | 418 kts | 298° |
| 2026-05-06 22:07 | 45.02957 | -106.08982 | 41033 ft | 418 kts | 299° |
| 2026-05-06 22:08 | 45.05372 | -106.16474 | 41036 ft | 418 kts | 298° |
| 2026-05-06 22:08 | 45.07784 | -106.23975 | 41036 ft | 419 kts | 298° |
| 2026-05-06 22:09 | 45.10193 | -106.31490 | 41031 ft | 419 kts | 298° |
| 2026-05-06 22:09 | 45.12593 | -106.38998 | 41026 ft | 418 kts | 298° |
| 2026-05-06 22:10 | 45.14969 | -106.46454 | 41035 ft | 417 kts | 298° |
| 2026-05-06 22:10 | 45.17356 | -106.53966 | 41039 ft | 417 kts | 298° |
| 2026-05-06 22:11 | 45.19736 | -106.61476 | 41030 ft | 417 kts | 298° |
| 2026-05-06 22:11 | 45.22092 | -106.68933 | 41025 ft | 417 kts | 298° |
| 2026-05-06 22:12 | 45.24460 | -106.76449 | 41033 ft | 417 kts | 298° |
| 2026-05-06 22:12 | 45.26809 | -106.83927 | 41005 ft | 416 kts | 299° |
| 2026-05-06 22:13 | 45.29158 | -106.91427 | 41019 ft | 415 kts | 299° |
| 2026-05-06 22:13 | 45.31499 | -106.98921 | 41029 ft | 414 kts | 299° |
| 2026-05-06 22:14 | 45.33815 | -107.06358 | 41028 ft | 414 kts | 299° |
| 2026-05-06 22:14 | 45.36142 | -107.13851 | 41021 ft | 414 kts | 299° |
| 2026-05-06 22:15 | 45.38462 | -107.21343 | 41021 ft | 413 kts | 298° |
| 2026-05-06 22:15 | 45.40774 | -107.28836 | 41011 ft | 413 kts | 298° |
| 2026-05-06 22:16 | 45.43080 | -107.36330 | 41000 ft | 412 kts | 299° |
| 2026-05-06 22:16 | 45.45362 | -107.43767 | 41002 ft | 412 kts | 299° |
| 2026-05-06 22:17 | 45.47654 | -107.51256 | 41003 ft | 412 kts | 298° |
| 2026-05-06 22:17 | 45.49944 | -107.58763 | 40995 ft | 413 kts | 298° |
| 2026-05-06 22:18 | 45.52215 | -107.66229 | 41002 ft | 413 kts | 298° |
| 2026-05-06 22:18 | 45.54499 | -107.73757 | 40985 ft | 413 kts | 298° |
| 2026-05-06 22:19 | 45.56777 | -107.81294 | 40992 ft | 413 kts | 298° |
| 2026-05-06 22:19 | 45.59050 | -107.88836 | 40979 ft | 413 kts | 299° |
| 2026-05-06 22:20 | 45.61311 | -107.96359 | 40989 ft | 412 kts | 298° |
| 2026-05-06 22:20 | 45.63565 | -108.03882 | 40970 ft | 412 kts | 298° |
| 2026-05-06 22:21 | 45.65797 | -108.11352 | 40967 ft | 411 kts | 298° |
| 2026-05-06 22:21 | 45.68035 | -108.18866 | 40967 ft | 410 kts | 298° |
| 2026-05-06 22:22 | 45.70268 | -108.26383 | 40952 ft | 410 kts | 298° |
| 2026-05-06 22:22 | 45.72494 | -108.33902 | 40904 ft | 410 kts | 298° |
| 2026-05-06 22:23 | 45.74709 | -108.41406 | 40947 ft | 408 kts | 298° |
| 2026-05-06 22:23 | 45.76544 | -108.47638 | 40949 ft | 408 kts | 298° |
| 2026-05-06 22:24 | 45.79107 | -108.56367 | 40952 ft | 409 kts | 298° |
| 2026-05-06 22:24 | 45.81665 | -108.63568 | 40958 ft | 402 kts | 309° |
| 2026-05-06 22:25 | 45.84612 | -108.68656 | 40977 ft | 399 kts | 315° |
| 2026-05-06 22:25 | 45.88298 | -108.74552 | 40960 ft | 399 kts | 315° |
| 2026-05-06 22:26 | 45.92008 | -108.80520 | 40933 ft | 400 kts | 315° |
| 2026-05-06 22:26 | 45.95705 | -108.86515 | 40930 ft | 401 kts | 315° |
| 2026-05-06 22:27 | 45.99401 | -108.92537 | 40934 ft | 401 kts | 315° |
| 2026-05-06 22:27 | 46.03055 | -108.98510 | 40918 ft | 400 kts | 314° |
| 2026-05-06 22:28 | 46.06724 | -109.04519 | 40920 ft | 399 kts | 314° |
| 2026-05-06 22:28 | 46.10384 | -109.10527 | 40919 ft | 398 kts | 314° |
| 2026-05-06 22:29 | 46.14040 | -109.16541 | 40915 ft | 398 kts | 314° |
| 2026-05-06 22:29 | 46.17669 | -109.22523 | 40904 ft | 398 kts | 314° |
| 2026-05-06 22:30 | 46.21319 | -109.28555 | 40903 ft | 398 kts | 314° |
| 2026-05-06 22:30 | 46.24942 | -109.34554 | 40905 ft | 398 kts | 314° |
| 2026-05-06 22:31 | 46.28583 | -109.40597 | 40905 ft | 398 kts | 314° |
| 2026-05-06 22:31 | 46.32215 | -109.46638 | 40905 ft | 398 kts | 314° |
| 2026-05-06 22:32 | 46.35825 | -109.52656 | 40909 ft | 398 kts | 314° |
| 2026-05-06 22:32 | 46.39456 | -109.58723 | 40905 ft | 398 kts | 314° |
| 2026-05-06 22:33 | 46.43082 | -109.64792 | 40911 ft | 398 kts | 314° |
| 2026-05-06 22:33 | 46.46709 | -109.70878 | 40905 ft | 398 kts | 313° |
| 2026-05-06 22:34 | 46.50320 | -109.76949 | 40906 ft | 399 kts | 313° |
| 2026-05-06 22:34 | 46.53945 | -109.83060 | 40914 ft | 400 kts | 313° |
| 2026-05-06 22:35 | 46.57575 | -109.89192 | 40919 ft | 400 kts | 313° |
| 2026-05-06 22:35 | 46.61212 | -109.95349 | 40919 ft | 401 kts | 313° |
| 2026-05-06 22:36 | 46.64823 | -110.01477 | 40937 ft | 401 kts | 313° |
| 2026-05-06 22:36 | 46.68452 | -110.07649 | 40937 ft | 401 kts | 313° |
| 2026-05-06 22:37 | 46.72078 | -110.13828 | 40949 ft | 401 kts | 313° |
| 2026-05-06 22:37 | 46.75571 | -110.20194 | 40890 ft | 398 kts | 322° |
| 2026-05-06 22:38 | 46.79633 | -110.25598 | 40919 ft | 400 kts | 311° |
| 2026-05-06 22:38 | 46.83069 | -110.32063 | 40947 ft | 405 kts | 310° |
| 2026-05-06 22:39 | 46.86579 | -110.38526 | 40946 ft | 407 kts | 311° |
| 2026-05-06 22:39 | 46.90170 | -110.44865 | 40943 ft | 407 kts | 312° |
| 2026-05-06 22:40 | 46.93825 | -110.51183 | 40940 ft | 406 kts | 313° |
| 2026-05-06 22:40 | 46.97480 | -110.57488 | 40950 ft | 405 kts | 312° |
| 2026-05-06 22:41 | 47.02904 | -110.66941 | 40934 ft | 405 kts | 312° |
| 2026-05-06 22:42 | 47.06530 | -110.73261 | 40935 ft | 404 kts | 312° |
| 2026-05-06 22:42 | 47.10141 | -110.79566 | 40937 ft | 402 kts | 312° |
| 2026-05-06 22:43 | 47.13732 | -110.85853 | 40939 ft | 401 kts | 312° |
| 2026-05-06 22:43 | 47.17352 | -110.92097 | 40917 ft | 401 kts | 312° |
| 2026-05-06 22:44 | 47.20894 | -110.98350 | 40927 ft | 400 kts | 311° |
| 2026-05-06 22:44 | 47.24448 | -111.04672 | 40916 ft | 400 kts | 311° |
| 2026-05-06 22:45 | 47.28005 | -111.10975 | 40919 ft | 400 kts | 311° |
| 2026-05-06 22:45 | 47.31543 | -111.17239 | 40911 ft | 400 kts | 311° |
| 2026-05-06 22:46 | 47.35108 | -111.23565 | 40902 ft | 401 kts | 310° |
| 2026-05-06 22:46 | 47.38674 | -111.29907 | 40910 ft | 401 kts | 310° |
| 2026-05-06 22:47 | 47.42246 | -111.36275 | 40909 ft | 403 kts | 310° |
| 2026-05-06 22:47 | 47.45772 | -111.42673 | 40904 ft | 404 kts | 308° |
| 2026-05-06 22:48 | 47.49092 | -111.49386 | 40914 ft | 405 kts | 307° |
| 2026-05-06 22:48 | 47.52370 | -111.56190 | 40905 ft | 405 kts | 307° |
| 2026-05-06 22:49 | 47.55632 | -111.62943 | 40891 ft | 405 kts | 307° |
| 2026-05-06 22:49 | 47.58918 | -111.69727 | 40892 ft | 405 kts | 307° |
| 2026-05-06 22:50 | 47.62200 | -111.76503 | 40891 ft | 405 kts | 307° |
| 2026-05-06 22:50 | 47.65484 | -111.83297 | 40885 ft | 405 kts | 307° |
| 2026-05-06 22:51 | 47.68764 | -111.90098 | 40881 ft | 405 kts | 307° |
| 2026-05-06 22:51 | 47.72022 | -111.96871 | 40862 ft | 405 kts | 306° |
| 2026-05-06 22:52 | 47.75289 | -112.03681 | 40881 ft | 404 kts | 306° |
| 2026-05-06 22:52 | 47.78560 | -112.10515 | 40893 ft | 405 kts | 306° |
| 2026-05-06 22:53 | 47.81802 | -112.17306 | 40886 ft | 405 kts | 306° |
| 2026-05-06 22:53 | 47.85056 | -112.24139 | 40892 ft | 404 kts | 306° |
| 2026-05-06 22:54 | 47.88313 | -112.30995 | 40892 ft | 404 kts | 306° |
| 2026-05-06 22:54 | 47.91555 | -112.37837 | 40893 ft | 404 kts | 306° |
| 2026-05-06 22:55 | 47.94776 | -112.44651 | 40926 ft | 404 kts | 306° |
| 2026-05-06 22:55 | 47.98015 | -112.51523 | 40919 ft | 404 kts | 306° |
| 2026-05-06 22:56 | 48.01248 | -112.58397 | 40924 ft | 404 kts | 306° |
| 2026-05-06 22:56 | 48.04452 | -112.65226 | 40923 ft | 404 kts | 306° |
| 2026-05-06 22:57 | 48.07673 | -112.72109 | 40934 ft | 403 kts | 306° |
| 2026-05-06 22:57 | 48.10885 | -112.78993 | 40954 ft | 403 kts | 305° |
| 2026-05-06 22:58 | 48.14097 | -112.85903 | 40955 ft | 403 kts | 306° |
| 2026-05-06 22:58 | 48.17285 | -112.92762 | 40955 ft | 403 kts | 305° |
| 2026-05-06 22:59 | 48.20492 | -112.99679 | 40952 ft | 403 kts | 306° |
| 2026-05-06 22:59 | 48.23689 | -113.06599 | 40972 ft | 403 kts | 305° |
| 2026-05-06 23:00 | 48.26863 | -113.13485 | 40977 ft | 402 kts | 305° |
| 2026-05-06 23:00 | 48.30046 | -113.20411 | 40970 ft | 403 kts | 305° |
| 2026-05-06 23:01 | 48.33227 | -113.27346 | 40972 ft | 402 kts | 305° |
| 2026-05-06 23:01 | 48.36401 | -113.34286 | 40991 ft | 402 kts | 305° |
| 2026-05-06 23:02 | 48.39545 | -113.41206 | 40978 ft | 402 kts | 307° |
| 2026-05-06 23:02 | 48.41480 | -113.44207 | 40992 ft | 401 kts | 325° |
| 2026-05-06 23:02 | 48.43701 | -113.46771 | 40870 ft | 404 kts | 314° |
| 2026-05-06 23:02 | 48.44583 | -113.50619 | 39389 ft | 431 kts | 263° |
| 2026-05-06 23:03 | 48.44299 | -113.55033 | 38707 ft | 409 kts | 289° |
| 2026-05-06 23:03 | 48.45269 | -113.58908 | 39065 ft | 387 kts | 293° |
| 2026-05-06 23:03 | 48.46467 | -113.62405 | 39187 ft | 375 kts | 308° |
| 2026-05-06 23:03 | 48.48263 | -113.65248 | 39494 ft | 373 kts | 313° |
| 2026-05-06 23:04 | 48.50370 | -113.67506 | 39602 ft | 378 kts | 333° |
| 2026-05-06 23:04 | 48.52611 | -113.69453 | 39871 ft | 368 kts | 315° |
| 2026-05-06 23:04 | 48.54234 | -113.72396 | 40142 ft | 364 kts | 307° |
| 2026-05-06 23:04 | 48.55450 | -113.75745 | 40391 ft | 365 kts | 301° |
| 2026-05-06 23:05 | 48.56833 | -113.78972 | 40571 ft | 365 kts | 307° |
| 2026-05-06 23:05 | 48.58231 | -113.82174 | 40729 ft | 366 kts | 301° |
| 2026-05-06 23:05 | 48.59529 | -113.85448 | 40841 ft | 368 kts | 302° |
| 2026-05-06 23:06 | 48.62385 | -113.91981 | 40941 ft | 375 kts | 304° |
| 2026-05-06 23:06 | 48.65370 | -113.98556 | 40945 ft | 384 kts | 304° |
| 2026-05-06 23:07 | 48.68405 | -114.05301 | 40950 ft | 392 kts | 304° |
| 2026-05-06 23:07 | 48.71488 | -114.12218 | 40948 ft | 399 kts | 304° |
| 2026-05-06 23:08 | 48.74603 | -114.19243 | 40957 ft | 403 kts | 304° |
| 2026-05-06 23:08 | 48.77715 | -114.26285 | 40942 ft | 406 kts | 304° |
| 2026-05-06 23:09 | 48.80863 | -114.33426 | 40947 ft | 407 kts | 304° |
| 2026-05-06 23:09 | 48.84013 | -114.40590 | 40955 ft | 407 kts | 304° |
| 2026-05-06 23:10 | 48.87134 | -114.47708 | 40950 ft | 406 kts | 304° |
| 2026-05-06 23:10 | 48.90263 | -114.54863 | 40954 ft | 405 kts | 304° |
| 2026-05-06 23:11 | 48.93384 | -114.62018 | 40952 ft | 405 kts | 303° |
| 2026-05-06 23:11 | 48.96487 | -114.69148 | 40946 ft | 402 kts | 304° |
| 2026-05-06 23:12 | 48.99526 | -114.76250 | 40957 ft | 402 kts | 304° |
| 2026-05-06 23:12 | 49.02134 | -114.82183 | 40959 ft | 402 kts | 304° |
| 2026-05-06 23:13 | 49.05187 | -114.89273 | 40960 ft | 401 kts | 303° |
| 2026-05-06 23:13 | 49.08241 | -114.96409 | 40963 ft | 402 kts | 301° |
| 2026-05-06 23:14 | 49.10979 | -115.03809 | 41027 ft | 398 kts | 300° |
| 2026-05-06 23:14 | 49.14155 | -115.10705 | 40921 ft | 401 kts | 305° |
| 2026-05-06 23:15 | 49.17301 | -115.17676 | 40952 ft | 401 kts | 303° |
| 2026-05-06 23:15 | 49.20364 | -115.24821 | 40948 ft | 402 kts | 303° |
| 2026-05-06 23:16 | 49.23400 | -115.32001 | 40954 ft | 402 kts | 303° |
| 2026-05-06 23:16 | 49.26416 | -115.39158 | 40944 ft | 402 kts | 303° |
| 2026-05-06 23:17 | 49.29450 | -115.46366 | 40946 ft | 402 kts | 303° |
| 2026-05-06 23:17 | 49.32475 | -115.53570 | 40946 ft | 402 kts | 303° |
| 2026-05-06 23:18 | 49.35497 | -115.60784 | 40951 ft | 401 kts | 302° |
| 2026-05-06 23:18 | 49.38519 | -115.68017 | 40930 ft | 402 kts | 302° |
| 2026-05-06 23:19 | 49.41532 | -115.75251 | 40927 ft | 402 kts | 302° |
| 2026-05-06 23:19 | 49.44536 | -115.82480 | 40924 ft | 403 kts | 302° |
| 2026-05-06 23:20 | 49.47557 | -115.89772 | 40893 ft | 403 kts | 302° |
| 2026-05-06 23:20 | 49.50561 | -115.96927 | 40912 ft | 399 kts | 302° |
| 2026-05-06 23:21 | 49.53499 | -116.04163 | 40936 ft | 399 kts | 302° |
| 2026-05-06 23:21 | 49.56223 | -116.11613 | 40943 ft | 399 kts | 293° |
| 2026-05-06 23:22 | 49.58330 | -116.19509 | 40940 ft | 401 kts | 293° |
| 2026-05-06 23:22 | 49.60438 | -116.27478 | 40963 ft | 402 kts | 293° |
| 2026-05-06 23:23 | 49.62558 | -116.35459 | 40972 ft | 402 kts | 293° |
| 2026-05-06 23:23 | 49.64683 | -116.43451 | 40974 ft | 402 kts | 293° |
| 2026-05-06 23:24 | 49.66794 | -116.51407 | 40946 ft | 403 kts | 293° |
| 2026-05-06 23:24 | 49.68916 | -116.59427 | 40951 ft | 403 kts | 293° |
| 2026-05-06 23:25 | 49.71036 | -116.67470 | 40944 ft | 403 kts | 293° |
| 2026-05-06 23:25 | 49.73136 | -116.75461 | 40920 ft | 403 kts | 293° |
| 2026-05-06 23:26 | 49.75241 | -116.83505 | 40926 ft | 403 kts | 293° |
| 2026-05-06 23:26 | 49.77337 | -116.91543 | 40917 ft | 402 kts | 293° |
| 2026-05-06 23:27 | 49.79428 | -116.99590 | 40933 ft | 402 kts | 293° |
| 2026-05-06 23:27 | 49.81499 | -117.07582 | 40907 ft | 402 kts | 293° |
| 2026-05-06 23:28 | 49.83577 | -117.15637 | 40920 ft | 403 kts | 292° |
| 2026-05-06 23:28 | 49.85657 | -117.23710 | 40909 ft | 403 kts | 292° |
| 2026-05-06 23:29 | 49.87714 | -117.31736 | 40889 ft | 403 kts | 290° |
| 2026-05-06 23:29 | 49.89945 | -117.39685 | 40929 ft | 400 kts | 300° |
| 2026-05-06 23:29 | 49.91184 | -117.43505 | 40877 ft | 401 kts | 289° |
| 2026-05-06 23:30 | 49.91987 | -117.47641 | 40933 ft | 401 kts | 288° |
| 2026-05-06 23:30 | 49.93766 | -117.55859 | 40907 ft | 401 kts | 292° |
| 2026-05-06 23:31 | 49.95817 | -117.63934 | 40891 ft | 401 kts | 293° |
| 2026-05-06 23:31 | 49.97890 | -117.71999 | 40898 ft | 402 kts | 292° |
| 2026-05-06 23:32 | 49.99935 | -117.80065 | 40892 ft | 403 kts | 292° |
| 2026-05-06 23:32 | 50.01974 | -117.88207 | 40890 ft | 404 kts | 292° |
| 2026-05-06 23:33 | 50.03999 | -117.96366 | 40807 ft | 405 kts | 285° |
| 2026-05-06 23:33 | 50.04276 | -118.00730 | 40968 ft | 403 kts | 278° |
| 2026-05-06 23:33 | 50.05056 | -118.04931 | 40470 ft | 407 kts | 297° |
| 2026-05-06 23:33 | 50.06347 | -118.08721 | 40693 ft | 397 kts | 298° |
| 2026-05-06 23:34 | 50.07612 | -118.12580 | 40363 ft | 399 kts | 296° |
| 2026-05-06 23:34 | 50.08783 | -118.16480 | 39876 ft | 396 kts | 294° |
| 2026-05-06 23:34 | 50.09864 | -118.20395 | 39445 ft | 391 kts | 293° |
| 2026-05-06 23:34 | 50.10887 | -118.24330 | 38824 ft | 391 kts | 292° |
| 2026-05-06 23:35 | 50.11877 | -118.28267 | 38174 ft | 389 kts | 292° |
| 2026-05-06 23:35 | 50.12848 | -118.32200 | 37464 ft | 388 kts | 292° |
| 2026-05-06 23:35 | 50.13806 | -118.36119 | 36822 ft | 386 kts | 291° |
| 2026-05-06 23:35 | 50.14755 | -118.40015 | 36168 ft | 384 kts | 291° |
| 2026-05-06 23:36 | 50.15689 | -118.43859 | 35485 ft | 383 kts | 291° |
| 2026-05-06 23:36 | 50.16633 | -118.47748 | 34792 ft | 383 kts | 291° |
| 2026-05-06 23:36 | 50.17579 | -118.51652 | 34018 ft | 384 kts | 291° |
| 2026-05-06 23:36 | 50.18523 | -118.55552 | 33167 ft | 384 kts | 291° |
| 2026-05-06 23:37 | 50.19467 | -118.59461 | 32345 ft | 385 kts | 291° |
| 2026-05-06 23:37 | 50.20410 | -118.63370 | 31508 ft | 385 kts | 291° |
| 2026-05-06 23:37 | 50.21356 | -118.67298 | 30642 ft | 387 kts | 291° |
| 2026-05-06 23:37 | 50.22306 | -118.71247 | 29661 ft | 390 kts | 291° |
| 2026-05-06 23:38 | 50.23262 | -118.75229 | 28605 ft | 392 kts | 291° |
| 2026-05-06 23:38 | 50.24213 | -118.79195 | 27568 ft | 396 kts | 291° |
| 2026-05-06 23:38 | 50.25187 | -118.83268 | 26492 ft | 403 kts | 291° |
| 2026-05-06 23:38 | 50.26177 | -118.87415 | 25696 ft | 413 kts | 291° |
| 2026-05-06 23:39 | 50.27197 | -118.91696 | 24861 ft | 422 kts | 291° |
| 2026-05-06 23:39 | 50.28218 | -118.95980 | 24042 ft | 417 kts | 290° |
| 2026-05-06 23:39 | 50.29245 | -119.00202 | 23170 ft | 412 kts | 292° |
| 2026-05-06 23:39 | 50.30294 | -119.04278 | 22253 ft | 406 kts | 290° |
| 2026-05-06 23:40 | 50.31193 | -119.08426 | 21426 ft | 399 kts | 289° |
| 2026-05-06 23:40 | 50.32162 | -119.12473 | 20621 ft | 393 kts | 289° |
| 2026-05-06 23:40 | 50.33036 | -119.16516 | 19825 ft | 389 kts | 288° |
| 2026-05-06 23:40 | 50.33929 | -119.20490 | 19063 ft | 384 kts | 290° |
| 2026-05-06 23:41 | 50.34845 | -119.24358 | 18401 ft | 382 kts | 290° |
| 2026-05-06 23:41 | 50.35771 | -119.28219 | 18194 ft | 375 kts | 290° |
| 2026-05-06 23:41 | 50.36682 | -119.32036 | 18064 ft | 369 kts | 290° |
| 2026-05-06 23:41 | 50.37555 | -119.35725 | 17906 ft | 353 kts | 290° |
| 2026-05-06 23:42 | 50.38317 | -119.39273 | 17826 ft | 331 kts | 288° |
| 2026-05-06 23:42 | 50.39136 | -119.42439 | 17844 ft | 304 kts | 292° |
| 2026-05-06 23:42 | 50.39886 | -119.45451 | 17491 ft | 293 kts | 289° |
| 2026-05-06 23:42 | 50.40574 | -119.48441 | 17010 ft | 290 kts | 289° |
| 2026-05-06 23:43 | 50.41250 | -119.51425 | 16518 ft | 290 kts | 289° |
| 2026-05-06 23:43 | 50.41929 | -119.54417 | 16038 ft | 291 kts | 289° |
| 2026-05-06 23:43 | 50.42612 | -119.57412 | 15521 ft | 292 kts | 289° |
| 2026-05-06 23:43 | 50.43306 | -119.60444 | 14808 ft | 296 kts | 289° |
| 2026-05-06 23:44 | 50.43995 | -119.63452 | 14098 ft | 296 kts | 289° |
| 2026-05-06 23:44 | 50.44693 | -119.66493 | 13355 ft | 296 kts | 290° |
| 2026-05-06 23:44 | 50.45391 | -119.69534 | 12588 ft | 296 kts | 290° |
| 2026-05-06 23:44 | 50.46086 | -119.72572 | 11822 ft | 296 kts | 290° |
| 2026-05-06 23:45 | 50.46781 | -119.75599 | 11085 ft | 294 kts | 290° |
| 2026-05-06 23:45 | 50.47472 | -119.78618 | 10360 ft | 293 kts | 290° |
| 2026-05-06 23:45 | 50.48153 | -119.81602 | 9957 ft | 281 kts | 290° |
| 2026-05-06 23:45 | 50.48790 | -119.84382 | 9916 ft | 262 kts | 289° |
| 2026-05-06 23:46 | 50.49405 | -119.86967 | 9856 ft | 244 kts | 290° |
| 2026-05-06 23:46 | 50.50063 | -119.89307 | 9699 ft | 227 kts | 306° |
| 2026-05-06 23:46 | 50.51331 | -119.90630 | 9530 ft | 218 kts | 342° |
| 2026-05-06 23:46 | 50.52732 | -119.91188 | 9429 ft | 208 kts | 348° |
| 2026-05-06 23:47 | 50.54161 | -119.91043 | 9220 ft | 206 kts | 8° |
| 2026-05-06 23:47 | 50.55534 | -119.90494 | 8967 ft | 203 kts | 9° |
| 2026-05-06 23:47 | 50.56907 | -119.89920 | 8723 ft | 204 kts | 8° |
| 2026-05-06 23:47 | 50.58279 | -119.89379 | 8563 ft | 206 kts | 7° |
| 2026-05-06 23:48 | 50.59698 | -119.88878 | 8327 ft | 210 kts | 1° |
| 2026-05-06 23:48 | 50.61076 | -119.89305 | 8078 ft | 198 kts | 325° |
| 2026-05-06 23:48 | 50.61979 | -119.90801 | 7846 ft | 188 kts | 302° |
| 2026-05-06 23:48 | 50.62454 | -119.92729 | 7594 ft | 188 kts | 281° |
| 2026-05-06 23:49 | 50.62716 | -119.94712 | 7325 ft | 182 kts | 283° |
| 2026-05-06 23:49 | 50.62993 | -119.96629 | 7088 ft | 177 kts | 282° |
| 2026-05-06 23:49 | 50.63263 | -119.98504 | 6896 ft | 176 kts | 284° |
| 2026-05-06 23:49 | 50.63568 | -120.00331 | 6674 ft | 168 kts | 283° |
| 2026-05-06 23:50 | 50.63859 | -120.02079 | 6452 ft | 161 kts | 284° |
| 2026-05-06 23:50 | 50.64353 | -120.05406 | 6055 ft | 156 kts | 284° |
| 2026-05-06 23:50 | 50.64600 | -120.07078 | 5844 ft | 157 kts | 284° |
| 2026-05-06 23:51 | 50.64845 | -120.08744 | 5633 ft | 155 kts | 283° |
| 2026-05-06 23:51 | 50.65127 | -120.10353 | 5419 ft | 150 kts | 288° |
| 2026-05-06 23:51 | 50.65372 | -120.11945 | 5217 ft | 148 kts | 285° |
| 2026-05-06 23:51 | 50.65624 | -120.13565 | 5068 ft | 161 kts | 284° |
| 2026-05-06 23:52 | 50.65891 | -120.15288 | 4814 ft | 158 kts | 284° |
| 2026-05-06 23:52 | 50.66132 | -120.16947 | 4606 ft | 151 kts | 285° |
| 2026-05-06 23:52 | 50.66398 | -120.18510 | 4402 ft | 146 kts | 286° |
| 2026-05-06 23:52 | 50.66632 | -120.20055 | 4190 ft | 147 kts | 284° |
| 2026-05-06 23:53 | 50.66862 | -120.21651 | 3989 ft | 152 kts | 285° |
| 2026-05-06 23:53 | 50.67101 | -120.23280 | 3778 ft | 152 kts | 284° |
| 2026-05-06 23:53 | 50.67323 | -120.24874 | 3589 ft | 145 kts | 283° |
| 2026-05-06 23:53 | 50.67539 | -120.26352 | 3395 ft | 137 kts | 285° |
| 2026-05-06 23:54 | 50.67765 | -120.27827 | 3198 ft | 138 kts | 285° |
| 2026-05-06 23:54 | 50.67981 | -120.29324 | 2981 ft | 142 kts | 285° |
| 2026-05-06 23:54 | 50.68181 | -120.30801 | 2810 ft | 135 kts | 285° |
| 2026-05-06 23:54 | 50.68417 | -120.32235 | 2649 ft | 133 kts | 280° |
| 2026-05-06 23:55 | 50.68628 | -120.33661 | 2448 ft | 132 kts | 278° |
| 2026-05-06 23:55 | 50.68748 | -120.34502 | 2302 ft | 132 kts | 280° |
| 2026-05-06 23:55 | 50.68820 | -120.34957 | 2188 ft | 135 kts | 284° |
| 2026-05-06 23:56 | 50.69021 | -120.36375 | 2049 ft | 139 kts | 283° |
| 2026-05-06 23:56 | 50.69253 | -120.37879 | 1938 ft | 139 kts | 283° |
| 2026-05-06 23:56 | 50.69461 | -120.39380 | 1679 ft | 139 kts | 282° |
| 2026-05-06 23:56 | 50.69711 | -120.40836 | 1467 ft | 139 kts | 283° |
| 2026-05-06 23:57 | 50.69923 | -120.42339 | 1332 ft | 141 kts | 279° |
| 2026-05-06 23:57 | 50.70062 | -120.43233 | 1208 ft | 138 kts | 280° |
| 2026-05-06 23:57 | 50.70090 | -120.43417 | 1184 ft | 136 kts | 280° |
| 2026-05-06 23:58 | 50.70278 | -120.44708 | 1138 ft | 107 kts | 282° |
| 2026-05-06 23:58 | 50.70414 | -120.45602 | 1142 ft | 48 kts | 283° |
| 2026-05-06 23:58 | 50.70452 | -120.45857 | 1138 ft | 30 kts | 282° |
| 2026-05-06 23:59 | 50.70493 | -120.46063 | 1137 ft | 6 kts | 242° |
| 2026-05-06 23:59 | 50.70469 | -120.45982 | 1141 ft | 19 kts | 100° |
| 2026-05-06 23:59 | 50.70438 | -120.45753 | 1139 ft | 24 kts | 104° |
| 2026-05-07 00:00 | 50.70392 | -120.45458 | 1140 ft | 32 kts | 104° |
| 2026-05-07 00:00 | 50.70336 | -120.45072 | 1140 ft | 40 kts | 103° |
| 2026-05-07 00:00 | 50.70293 | -120.44781 | 1140 ft | 41 kts | 103° |
| 2026-05-07 00:00 | 50.70245 | -120.44451 | 1139 ft | 21 kts | 102° |
| 2026-05-07 00:01 | 50.70275 | -120.44378 | 1138 ft | 10 kts | 353° |
| 2026-05-07 00:01 | 50.70404 | -120.44343 | 1141 ft | 3 kts | 40° |
| 2026-05-07 00:01 | 50.70415 | -120.44312 | 1139 ft | 2 kts | 62° |
| 2026-05-07 00:01 | 50.70418 | -120.44303 | 1139 ft | 0 kts | 63° |
| 2026-05-07 00:03 | 50.70418 | -120.44302 | 1139 ft | 0 kts | 65° |